sensor_id;sensor_type;location;lat;lon;timestamp;P1;durP1;ratioP1;P2;durP2;ratioP2
24857;SDS011;12935;50.782;6.074;2023-04-05T00:01:25;19.23;;;3.70;;
24857;SDS011;12935;50.782;6.074;2023-04-05T00:03:51;21.97;;;3.63;;
24857;SDS011;12935;50.782;6.074;2023-04-05T00:06:18;14.27;;;2.78;;
24857;SDS011;12935;50.782;6.074;2023-04-05T00:08:45;16.73;;;3.10;;
24857;SDS011;12935;50.782;6.074;2023-04-05T00:11:14;26.25;;;5.13;;
24857;SDS011;12935;50.782;6.074;2023-04-05T00:13:42;22.20;;;3.80;;
24857;SDS011;12935;50.782;6.074;2023-04-05T00:16:07;27.00;;;4.13;;
24857;SDS011;12935;50.782;6.074;2023-04-05T00:18:33;26.50;;;4.13;;
24857;SDS011;12935;50.782;6.074;2023-04-05T00:20:58;19.23;;;3.53;;
24857;SDS011;12935;50.782;6.074;2023-04-05T00:23:24;19.70;;;3.45;;
24857;SDS011;12935;50.782;6.074;2023-04-05T00:25:50;32.70;;;5.18;;
24857;SDS011;12935;50.782;6.074;2023-04-05T00:28:16;27.63;;;4.37;;
24857;SDS011;12935;50.782;6.074;2023-04-05T00:30:41;25.83;;;4.13;;
24857;SDS011;12935;50.782;6.074;2023-04-05T00:33:07;21.13;;;3.77;;
24857;SDS011;12935;50.782;6.074;2023-04-05T00:35:32;26.67;;;4.20;;
24857;SDS011;12935;50.782;6.074;2023-04-05T00:37:57;15.53;;;2.80;;
24857;SDS011;12935;50.782;6.074;2023-04-05T00:40:23;29.77;;;5.70;;
24857;SDS011;12935;50.782;6.074;2023-04-05T00:42:48;27.97;;;4.10;;
24857;SDS011;12935;50.782;6.074;2023-04-05T00:45:14;23.53;;;3.50;;
24857;SDS011;12935;50.782;6.074;2023-04-05T00:47:40;14.37;;;2.77;;
24857;SDS011;12935;50.782;6.074;2023-04-05T00:50:06;27.77;;;4.03;;
24857;SDS011;12935;50.782;6.074;2023-04-05T00:52:34;26.10;;;4.82;;
24857;SDS011;12935;50.782;6.074;2023-04-05T00:54:59;17.50;;;3.50;;
24857;SDS011;12935;50.782;6.074;2023-04-05T00:57:25;28.07;;;4.47;;
24857;SDS011;12935;50.782;6.074;2023-04-05T00:59:50;31.40;;;5.40;;
24857;SDS011;12935;50.782;6.074;2023-04-05T01:02:17;16.17;;;2.83;;
24857;SDS011;12935;50.782;6.074;2023-04-05T01:04:53;26.60;;;3.95;;
24857;SDS011;12935;50.782;6.074;2023-04-05T01:07:37;22.10;;;3.65;;
24857;SDS011;12935;50.782;6.074;2023-04-05T01:10:08;18.10;;;2.95;;
24857;SDS011;12935;50.782;6.074;2023-04-05T01:12:36;14.82;;;2.70;;
24857;SDS011;12935;50.782;6.074;2023-04-05T01:15:02;25.27;;;3.78;;
24857;SDS011;12935;50.782;6.074;2023-04-05T01:17:29;17.43;;;2.77;;
24857;SDS011;12935;50.782;6.074;2023-04-05T01:20:01;16.67;;;2.80;;
24857;SDS011;12935;50.782;6.074;2023-04-05T01:30:36;25.35;;;5.72;;
24857;SDS011;12935;50.782;6.074;2023-04-05T01:33:13;24.15;;;3.58;;
24857;SDS011;12935;50.782;6.074;2023-04-05T01:38:21;24.10;;;4.28;;
24857;SDS011;12935;50.782;6.074;2023-04-05T01:40:49;15.68;;;2.63;;
24857;SDS011;12935;50.782;6.074;2023-04-05T01:43:15;22.83;;;4.47;;
24857;SDS011;12935;50.782;6.074;2023-04-05T01:45:42;18.08;;;3.00;;
24857;SDS011;12935;50.782;6.074;2023-04-05T01:48:09;23.38;;;3.55;;
24857;SDS011;12935;50.782;6.074;2023-04-05T01:50:34;26.43;;;4.40;;
24857;SDS011;12935;50.782;6.074;2023-04-05T01:53:00;17.20;;;4.23;;
24857;SDS011;12935;50.782;6.074;2023-04-05T01:55:25;22.33;;;3.43;;
24857;SDS011;12935;50.782;6.074;2023-04-05T01:57:51;23.37;;;3.53;;
24857;SDS011;12935;50.782;6.074;2023-04-05T02:00:18;25.08;;;3.75;;
24857;SDS011;12935;50.782;6.074;2023-04-05T02:02:43;20.90;;;3.40;;
24857;SDS011;12935;50.782;6.074;2023-04-05T02:05:09;28.30;;;4.20;;
24857;SDS011;12935;50.782;6.074;2023-04-05T02:07:34;21.63;;;3.20;;
24857;SDS011;12935;50.782;6.074;2023-04-05T02:09:59;16.57;;;3.60;;
24857;SDS011;12935;50.782;6.074;2023-04-05T02:12:25;29.70;;;4.50;;
24857;SDS011;12935;50.782;6.074;2023-04-05T02:14:50;19.50;;;3.00;;
24857;SDS011;12935;50.782;6.074;2023-04-05T02:17:16;21.60;;;3.40;;
24857;SDS011;12935;50.782;6.074;2023-04-05T02:19:42;24.50;;;3.67;;
24857;SDS011;12935;50.782;6.074;2023-04-05T02:22:10;17.38;;;2.60;;
24857;SDS011;12935;50.782;6.074;2023-04-05T02:24:36;31.37;;;4.50;;
24857;SDS011;12935;50.782;6.074;2023-04-05T02:27:01;16.20;;;3.13;;
24857;SDS011;12935;50.782;6.074;2023-04-05T02:29:27;60.40;;;8.23;;
24857;SDS011;12935;50.782;6.074;2023-04-05T02:31:52;12.00;;;2.70;;
24857;SDS011;12935;50.782;6.074;2023-04-05T02:34:18;25.10;;;3.93;;
24857;SDS011;12935;50.782;6.074;2023-04-05T02:36:43;21.20;;;3.00;;
24857;SDS011;12935;50.782;6.074;2023-04-05T02:39:09;23.73;;;3.40;;
24857;SDS011;12935;50.782;6.074;2023-04-05T02:41:35;12.87;;;2.20;;
24857;SDS011;12935;50.782;6.074;2023-04-05T02:44:00;25.47;;;4.43;;
24857;SDS011;12935;50.782;6.074;2023-04-05T02:46:25;14.63;;;2.63;;
24857;SDS011;12935;50.782;6.074;2023-04-05T02:48:51;18.93;;;2.77;;
24857;SDS011;12935;50.782;6.074;2023-04-05T02:51:16;15.13;;;2.53;;
24857;SDS011;12935;50.782;6.074;2023-04-05T02:53:41;23.77;;;3.43;;
24857;SDS011;12935;50.782;6.074;2023-04-05T02:56:08;22.48;;;3.63;;
24857;SDS011;12935;50.782;6.074;2023-04-05T02:58:37;31.48;;;4.15;;
24857;SDS011;12935;50.782;6.074;2023-04-05T03:01:03;18.50;;;2.80;;
24857;SDS011;12935;50.782;6.074;2023-04-05T03:03:31;14.82;;;2.42;;
24857;SDS011;12935;50.782;6.074;2023-04-05T03:05:59;14.30;;;2.20;;
24857;SDS011;12935;50.782;6.074;2023-04-05T03:08:31;14.68;;;3.83;;
24857;SDS011;12935;50.782;6.074;2023-04-05T03:10:56;16.27;;;2.50;;
24857;SDS011;12935;50.782;6.074;2023-04-05T03:13:21;25.80;;;4.00;;
24857;SDS011;12935;50.782;6.074;2023-04-05T03:15:47;14.53;;;2.30;;
24857;SDS011;12935;50.782;6.074;2023-04-05T03:18:15;9.57;;;1.80;;
24857;SDS011;12935;50.782;6.074;2023-04-05T03:20:40;21.20;;;3.17;;
24857;SDS011;12935;50.782;6.074;2023-04-05T03:23:06;21.63;;;3.20;;
24857;SDS011;12935;50.782;6.074;2023-04-05T03:25:33;22.38;;;3.58;;
24857;SDS011;12935;50.782;6.074;2023-04-05T03:28:00;30.50;;;4.40;;
24857;SDS011;12935;50.782;6.074;2023-04-05T03:30:27;28.45;;;3.80;;
24857;SDS011;12935;50.782;6.074;2023-04-05T03:32:53;20.47;;;3.33;;
24857;SDS011;12935;50.782;6.074;2023-04-05T03:35:18;60.37;;;4.87;;
24857;SDS011;12935;50.782;6.074;2023-04-05T03:37:43;23.30;;;3.23;;
24857;SDS011;12935;50.782;6.074;2023-04-05T03:40:09;21.50;;;3.30;;
24857;SDS011;12935;50.782;6.074;2023-04-05T03:42:35;23.17;;;3.97;;
24857;SDS011;12935;50.782;6.074;2023-04-05T03:45:00;23.90;;;4.17;;
24857;SDS011;12935;50.782;6.074;2023-04-05T03:47:25;19.53;;;3.13;;
24857;SDS011;12935;50.782;6.074;2023-04-05T03:49:51;18.85;;;2.92;;
24857;SDS011;12935;50.782;6.074;2023-04-05T03:52:17;22.47;;;4.93;;
24857;SDS011;12935;50.782;6.074;2023-04-05T03:54:42;13.07;;;2.27;;
24857;SDS011;12935;50.782;6.074;2023-04-05T03:57:07;20.63;;;3.50;;
24857;SDS011;12935;50.782;6.074;2023-04-05T03:59:32;43.53;;;5.93;;
24857;SDS011;12935;50.782;6.074;2023-04-05T04:01:58;21.43;;;3.27;;
24857;SDS011;12935;50.782;6.074;2023-04-05T04:04:23;20.93;;;3.07;;
24857;SDS011;12935;50.782;6.074;2023-04-05T04:06:48;23.20;;;3.03;;
24857;SDS011;12935;50.782;6.074;2023-04-05T04:09:14;20.40;;;2.97;;
24857;SDS011;12935;50.782;6.074;2023-04-05T04:11:40;24.50;;;4.40;;
24857;SDS011;12935;50.782;6.074;2023-04-05T04:14:05;21.00;;;4.30;;
24857;SDS011;12935;50.782;6.074;2023-04-05T04:16:31;26.93;;;4.40;;
24857;SDS011;12935;50.782;6.074;2023-04-05T04:18:56;23.87;;;4.60;;
24857;SDS011;12935;50.782;6.074;2023-04-05T04:21:21;15.83;;;2.50;;
24857;SDS011;12935;50.782;6.074;2023-04-05T04:23:49;31.05;;;4.28;;
24857;SDS011;12935;50.782;6.074;2023-04-05T04:26:17;15.52;;;2.58;;
24857;SDS011;12935;50.782;6.074;2023-04-05T04:28:51;16.77;;;2.58;;
24857;SDS011;12935;50.782;6.074;2023-04-05T04:31:17;18.85;;;2.88;;
24857;SDS011;12935;50.782;6.074;2023-04-05T04:33:42;15.77;;;2.57;;
24857;SDS011;12935;50.782;6.074;2023-04-05T04:36:08;37.67;;;5.50;;
24857;SDS011;12935;50.782;6.074;2023-04-05T04:38:38;32.22;;;4.35;;
24857;SDS011;12935;50.782;6.074;2023-04-05T04:41:06;20.83;;;2.85;;
24857;SDS011;12935;50.782;6.074;2023-04-05T04:43:33;27.70;;;3.63;;
24857;SDS011;12935;50.782;6.074;2023-04-05T04:46:07;25.23;;;3.58;;
24857;SDS011;12935;50.782;6.074;2023-04-05T04:48:42;41.08;;;5.60;;
24857;SDS011;12935;50.782;6.074;2023-04-05T04:51:07;25.58;;;3.45;;
24857;SDS011;12935;50.782;6.074;2023-04-05T04:53:32;19.10;;;2.63;;
24857;SDS011;12935;50.782;6.074;2023-04-05T04:55:58;16.77;;;3.30;;
24857;SDS011;12935;50.782;6.074;2023-04-05T04:58:23;23.40;;;3.30;;
24857;SDS011;12935;50.782;6.074;2023-04-05T05:00:48;34.70;;;4.50;;
24857;SDS011;12935;50.782;6.074;2023-04-05T05:03:16;19.63;;;2.85;;
24857;SDS011;12935;50.782;6.074;2023-04-05T05:05:42;26.97;;;4.10;;
24857;SDS011;12935;50.782;6.074;2023-04-05T05:08:13;24.92;;;3.47;;
24857;SDS011;12935;50.782;6.074;2023-04-05T05:10:38;32.93;;;4.77;;
24857;SDS011;12935;50.782;6.074;2023-04-05T05:13:04;38.83;;;5.53;;
24857;SDS011;12935;50.782;6.074;2023-04-05T05:15:29;22.43;;;3.47;;
24857;SDS011;12935;50.782;6.074;2023-04-05T05:17:55;21.07;;;3.30;;
24857;SDS011;12935;50.782;6.074;2023-04-05T05:20:20;44.30;;;5.80;;
24857;SDS011;12935;50.782;6.074;2023-04-05T05:22:46;25.87;;;3.60;;
24857;SDS011;12935;50.782;6.074;2023-04-05T05:25:12;29.98;;;4.65;;
24857;SDS011;12935;50.782;6.074;2023-04-05T05:27:38;17.80;;;2.47;;
24857;SDS011;12935;50.782;6.074;2023-04-05T05:30:03;15.27;;;2.70;;
24857;SDS011;12935;50.782;6.074;2023-04-05T05:32:29;26.73;;;3.47;;
24857;SDS011;12935;50.782;6.074;2023-04-05T05:34:54;25.83;;;3.40;;
24857;SDS011;12935;50.782;6.074;2023-04-05T05:37:29;26.80;;;3.73;;
24857;SDS011;12935;50.782;6.074;2023-04-05T05:39:56;13.23;;;2.10;;
24857;SDS011;12935;50.782;6.074;2023-04-05T05:42:21;24.67;;;3.33;;
24857;SDS011;12935;50.782;6.074;2023-04-05T05:44:47;28.50;;;4.00;;
24857;SDS011;12935;50.782;6.074;2023-04-05T05:47:12;25.30;;;3.70;;
24857;SDS011;12935;50.782;6.074;2023-04-05T05:49:37;31.70;;;5.57;;
24857;SDS011;12935;50.782;6.074;2023-04-05T05:52:03;12.20;;;1.93;;
24857;SDS011;12935;50.782;6.074;2023-04-05T05:54:28;27.17;;;4.30;;
24857;SDS011;12935;50.782;6.074;2023-04-05T05:56:53;21.97;;;3.17;;
24857;SDS011;12935;50.782;6.074;2023-04-05T05:59:19;19.23;;;2.77;;
24857;SDS011;12935;50.782;6.074;2023-04-05T06:01:44;23.27;;;3.47;;
24857;SDS011;12935;50.782;6.074;2023-04-05T06:04:10;22.88;;;3.78;;
24857;SDS011;12935;50.782;6.074;2023-04-05T06:06:39;22.50;;;3.42;;
24857;SDS011;12935;50.782;6.074;2023-04-05T06:09:06;21.88;;;3.53;;
24857;SDS011;12935;50.782;6.074;2023-04-05T06:11:32;38.63;;;5.40;;
24857;SDS011;12935;50.782;6.074;2023-04-05T06:13:57;20.10;;;3.33;;
24857;SDS011;12935;50.782;6.074;2023-04-05T06:16:22;23.80;;;3.40;;
24857;SDS011;12935;50.782;6.074;2023-04-05T06:18:48;21.87;;;3.30;;
24857;SDS011;12935;50.782;6.074;2023-04-05T06:21:13;19.40;;;2.90;;
24857;SDS011;12935;50.782;6.074;2023-04-05T06:23:40;22.93;;;3.90;;
24857;SDS011;12935;50.782;6.074;2023-04-05T06:26:06;18.60;;;3.60;;
24857;SDS011;12935;50.782;6.074;2023-04-05T06:28:32;22.10;;;3.50;;
24857;SDS011;12935;50.782;6.074;2023-04-05T06:30:57;21.77;;;3.53;;
24857;SDS011;12935;50.782;6.074;2023-04-05T06:33:23;12.40;;;2.40;;
24857;SDS011;12935;50.782;6.074;2023-04-05T06:35:48;28.40;;;4.77;;
24857;SDS011;12935;50.782;6.074;2023-04-05T06:38:14;24.60;;;3.73;;
24857;SDS011;12935;50.782;6.074;2023-04-05T06:40:39;13.40;;;2.47;;
24857;SDS011;12935;50.782;6.074;2023-04-05T06:43:05;19.43;;;3.73;;
24857;SDS011;12935;50.782;6.074;2023-04-05T06:45:30;34.40;;;5.23;;
24857;SDS011;12935;50.782;6.074;2023-04-05T06:47:56;28.33;;;4.23;;
24857;SDS011;12935;50.782;6.074;2023-04-05T06:50:21;40.43;;;5.40;;
24857;SDS011;12935;50.782;6.074;2023-04-05T06:52:47;15.80;;;3.50;;
24857;SDS011;12935;50.782;6.074;2023-04-05T06:55:12;19.53;;;3.60;;
24857;SDS011;12935;50.782;6.074;2023-04-05T06:57:38;19.80;;;4.60;;
24857;SDS011;12935;50.782;6.074;2023-04-05T07:00:03;15.80;;;3.23;;
24857;SDS011;12935;50.782;6.074;2023-04-05T07:02:34;18.95;;;3.80;;
24857;SDS011;12935;50.782;6.074;2023-04-05T07:05:00;23.60;;;3.93;;
24857;SDS011;12935;50.782;6.074;2023-04-05T07:07:29;35.53;;;6.50;;
24857;SDS011;12935;50.782;6.074;2023-04-05T07:09:55;26.85;;;3.92;;
24857;SDS011;12935;50.782;6.074;2023-04-05T07:12:21;25.80;;;4.37;;
24857;SDS011;12935;50.782;6.074;2023-04-05T07:14:46;28.80;;;4.60;;
24857;SDS011;12935;50.782;6.074;2023-04-05T07:17:11;20.20;;;3.73;;
24857;SDS011;12935;50.782;6.074;2023-04-05T07:19:36;60.57;;;8.27;;
24857;SDS011;12935;50.782;6.074;2023-04-05T07:22:02;21.97;;;4.13;;
24857;SDS011;12935;50.782;6.074;2023-04-05T07:24:27;24.20;;;3.90;;
24857;SDS011;12935;50.782;6.074;2023-04-05T07:26:52;20.40;;;4.13;;
24857;SDS011;12935;50.782;6.074;2023-04-05T07:29:17;21.70;;;4.00;;
24857;SDS011;12935;50.782;6.074;2023-04-05T07:31:43;21.43;;;4.10;;
24857;SDS011;12935;50.782;6.074;2023-04-05T07:34:08;40.53;;;6.00;;
24857;SDS011;12935;50.782;6.074;2023-04-05T07:36:33;24.10;;;4.33;;
24857;SDS011;12935;50.782;6.074;2023-04-05T07:38:59;29.90;;;4.73;;
24857;SDS011;12935;50.782;6.074;2023-04-05T07:41:25;17.90;;;4.73;;
24857;SDS011;12935;50.782;6.074;2023-04-05T07:43:55;20.67;;;3.90;;
24857;SDS011;12935;50.782;6.074;2023-04-05T07:46:21;33.30;;;5.57;;
24857;SDS011;12935;50.782;6.074;2023-04-05T07:48:46;23.30;;;4.83;;
24857;SDS011;12935;50.782;6.074;2023-04-05T07:51:15;26.50;;;5.63;;
24857;SDS011;12935;50.782;6.074;2023-04-05T07:53:40;29.43;;;6.90;;
24857;SDS011;12935;50.782;6.074;2023-04-05T07:56:07;40.35;;;7.18;;
24857;SDS011;12935;50.782;6.074;2023-04-05T07:58:34;37.75;;;7.72;;
24857;SDS011;12935;50.782;6.074;2023-04-05T08:01:03;24.40;;;5.93;;
24857;SDS011;12935;50.782;6.074;2023-04-05T08:03:29;16.23;;;5.23;;
24857;SDS011;12935;50.782;6.074;2023-04-05T08:05:55;16.42;;;3.60;;
24857;SDS011;12935;50.782;6.074;2023-04-05T08:08:22;25.93;;;5.97;;
24857;SDS011;12935;50.782;6.074;2023-04-05T08:10:48;44.00;;;7.07;;
24857;SDS011;12935;50.782;6.074;2023-04-05T08:13:14;22.90;;;4.83;;
24857;SDS011;12935;50.782;6.074;2023-04-05T08:15:40;34.77;;;6.33;;
24857;SDS011;12935;50.782;6.074;2023-04-05T08:18:05;23.83;;;6.27;;
24857;SDS011;12935;50.782;6.074;2023-04-05T08:20:31;15.27;;;3.50;;
24857;SDS011;12935;50.782;6.074;2023-04-05T08:22:56;30.57;;;5.90;;
24857;SDS011;12935;50.782;6.074;2023-04-05T08:25:22;20.83;;;4.63;;
24857;SDS011;12935;50.782;6.074;2023-04-05T08:27:47;30.07;;;5.47;;
24857;SDS011;12935;50.782;6.074;2023-04-05T08:30:12;36.03;;;7.43;;
24857;SDS011;12935;50.782;6.074;2023-04-05T08:32:38;23.40;;;5.07;;
24857;SDS011;12935;50.782;6.074;2023-04-05T08:35:03;26.50;;;5.20;;
24857;SDS011;12935;50.782;6.074;2023-04-05T08:37:32;23.27;;;5.10;;
24857;SDS011;12935;50.782;6.074;2023-04-05T08:40:01;25.58;;;4.95;;
24857;SDS011;12935;50.782;6.074;2023-04-05T08:42:33;27.27;;;4.97;;
24857;SDS011;12935;50.782;6.074;2023-04-05T08:45:02;29.90;;;5.78;;
24857;SDS011;12935;50.782;6.074;2023-04-05T08:47:29;25.63;;;5.72;;
24857;SDS011;12935;50.782;6.074;2023-04-05T08:49:55;21.90;;;4.70;;
24857;SDS011;12935;50.782;6.074;2023-04-05T08:52:20;21.30;;;4.43;;
24857;SDS011;12935;50.782;6.074;2023-04-05T08:54:45;33.73;;;5.90;;
24857;SDS011;12935;50.782;6.074;2023-04-05T08:57:11;39.47;;;6.93;;
24857;SDS011;12935;50.782;6.074;2023-04-05T08:59:37;25.53;;;5.00;;
24857;SDS011;12935;50.782;6.074;2023-04-05T09:02:07;37.20;;;6.83;;
24857;SDS011;12935;50.782;6.074;2023-04-05T09:04:40;23.30;;;5.10;;
24857;SDS011;12935;50.782;6.074;2023-04-05T09:07:11;32.97;;;7.63;;
24857;SDS011;12935;50.782;6.074;2023-04-05T09:09:37;27.27;;;5.55;;
24857;SDS011;12935;50.782;6.074;2023-04-05T09:12:06;18.00;;;6.93;;
24857;SDS011;12935;50.782;6.074;2023-04-05T09:14:35;18.87;;;4.37;;
24857;SDS011;12935;50.782;6.074;2023-04-05T09:17:02;23.70;;;5.25;;
24857;SDS011;12935;50.782;6.074;2023-04-05T09:19:28;43.67;;;7.80;;
24857;SDS011;12935;50.782;6.074;2023-04-05T09:21:57;31.57;;;7.00;;
24857;SDS011;12935;50.782;6.074;2023-04-05T09:24:34;25.10;;;6.40;;
24857;SDS011;12935;50.782;6.074;2023-04-05T09:29:35;26.63;;;5.73;;
24857;SDS011;12935;50.782;6.074;2023-04-05T09:32:03;33.13;;;6.53;;
24857;SDS011;12935;50.782;6.074;2023-04-05T09:34:30;27.17;;;6.27;;
24857;SDS011;12935;50.782;6.074;2023-04-05T09:36:56;29.97;;;6.87;;
24857;SDS011;12935;50.782;6.074;2023-04-05T09:39:29;26.67;;;5.97;;
24857;SDS011;12935;50.782;6.074;2023-04-05T09:42:03;45.03;;;7.77;;
24857;SDS011;12935;50.782;6.074;2023-04-05T09:44:46;24.48;;;6.90;;
24857;SDS011;12935;50.782;6.074;2023-04-05T09:47:24;17.20;;;5.00;;
24857;SDS011;12935;50.782;6.074;2023-04-05T09:49:55;34.60;;;7.83;;
24857;SDS011;12935;50.782;6.074;2023-04-05T09:52:24;26.67;;;6.13;;
24857;SDS011;12935;50.782;6.074;2023-04-05T09:54:56;32.90;;;7.20;;
24857;SDS011;12935;50.782;6.074;2023-04-05T09:57:24;23.00;;;5.90;;
24857;SDS011;12935;50.782;6.074;2023-04-05T09:59:51;25.03;;;5.80;;
24857;SDS011;12935;50.782;6.074;2023-04-05T10:02:17;39.17;;;7.63;;
24857;SDS011;12935;50.782;6.074;2023-04-05T10:04:44;17.70;;;5.37;;
24857;SDS011;12935;50.782;6.074;2023-04-05T10:07:17;36.37;;;7.60;;
24857;SDS011;12935;50.782;6.074;2023-04-05T10:09:44;28.87;;;8.30;;
24857;SDS011;12935;50.782;6.074;2023-04-05T10:12:44;33.97;;;8.93;;
24857;SDS011;12935;50.782;6.074;2023-04-05T10:15:03;42.40;;;9.07;;
24857;SDS011;12935;50.782;6.074;2023-04-05T10:20:21;23.47;;;7.90;;
24857;SDS011;12935;50.782;6.074;2023-04-05T10:22:52;29.87;;;7.30;;
24857;SDS011;12935;50.782;6.074;2023-04-05T10:30:34;31.50;;;8.60;;
24857;SDS011;12935;50.782;6.074;2023-04-05T10:35:39;29.50;;;9.07;;
24857;SDS011;12935;50.782;6.074;2023-04-05T10:38:27;27.23;;;7.90;;
24857;SDS011;12935;50.782;6.074;2023-04-05T10:40:56;31.40;;;8.17;;
24857;SDS011;12935;50.782;6.074;2023-04-05T10:43:28;25.03;;;8.10;;
24857;SDS011;12935;50.782;6.074;2023-04-05T10:45:56;22.17;;;7.60;;
24857;SDS011;12935;50.782;6.074;2023-04-05T10:50:57;27.17;;;9.10;;
24857;SDS011;12935;50.782;6.074;2023-04-05T10:53:24;35.30;;;10.13;;
24857;SDS011;12935;50.782;6.074;2023-04-05T10:55:49;32.53;;;10.30;;
24857;SDS011;12935;50.782;6.074;2023-04-05T10:58:16;23.10;;;9.27;;
24857;SDS011;12935;50.782;6.074;2023-04-05T11:00:43;39.63;;;10.70;;
24857;SDS011;12935;50.782;6.074;2023-04-05T11:03:11;21.83;;;9.37;;
24857;SDS011;12935;50.782;6.074;2023-04-05T11:06:18;48.63;;;12.00;;
24857;SDS011;12935;50.782;6.074;2023-04-05T11:08:45;35.80;;;11.17;;
24857;SDS011;12935;50.782;6.074;2023-04-05T11:11:13;22.20;;;9.97;;
24857;SDS011;12935;50.782;6.074;2023-04-05T11:13:48;21.50;;;9.00;;
24857;SDS011;12935;50.782;6.074;2023-04-05T11:16:17;21.83;;;9.70;;
24857;SDS011;12935;50.782;6.074;2023-04-05T11:18:44;27.03;;;10.20;;
24857;SDS011;12935;50.782;6.074;2023-04-05T11:21:11;29.10;;;10.37;;
24857;SDS011;12935;50.782;6.074;2023-04-05T11:29:04;25.57;;;10.57;;
24857;SDS011;12935;50.782;6.074;2023-04-05T11:31:30;28.83;;;11.27;;
24857;SDS011;12935;50.782;6.074;2023-04-05T11:33:57;35.83;;;12.17;;
24857;SDS011;12935;50.782;6.074;2023-04-05T11:44:13;31.03;;;11.87;;
24857;SDS011;12935;50.782;6.074;2023-04-05T11:46:40;38.00;;;12.57;;
24857;SDS011;12935;50.782;6.074;2023-04-05T11:49:06;27.70;;;10.20;;
24857;SDS011;12935;50.782;6.074;2023-04-05T11:51:32;24.60;;;11.97;;
24857;SDS011;12935;50.782;6.074;2023-04-05T11:53:57;54.03;;;13.60;;
24857;SDS011;12935;50.782;6.074;2023-04-05T11:56:23;39.53;;;11.20;;
24857;SDS011;12935;50.782;6.074;2023-04-05T11:58:48;34.20;;;13.53;;
24857;SDS011;12935;50.782;6.074;2023-04-05T12:01:13;20.43;;;9.57;;
24857;SDS011;12935;50.782;6.074;2023-04-05T12:03:39;20.83;;;10.63;;
24857;SDS011;12935;50.782;6.074;2023-04-05T12:06:05;21.93;;;10.80;;
24857;SDS011;12935;50.782;6.074;2023-04-05T12:08:38;36.90;;;12.63;;
24857;SDS011;12935;50.782;6.074;2023-04-05T12:11:06;27.23;;;11.20;;
24857;SDS011;12935;50.782;6.074;2023-04-05T12:13:33;29.20;;;12.37;;
24857;SDS011;12935;50.782;6.074;2023-04-05T12:16:03;25.53;;;11.43;;
24857;SDS011;12935;50.782;6.074;2023-04-05T12:18:33;30.07;;;10.77;;
24857;SDS011;12935;50.782;6.074;2023-04-05T12:21:00;32.63;;;11.20;;
24857;SDS011;12935;50.782;6.074;2023-04-05T12:23:27;25.03;;;11.00;;
24857;SDS011;12935;50.782;6.074;2023-04-05T12:25:54;37.40;;;11.83;;
24857;SDS011;12935;50.782;6.074;2023-04-05T12:28:20;27.93;;;11.83;;
24857;SDS011;12935;50.782;6.074;2023-04-05T12:30:53;28.43;;;12.37;;
24857;SDS011;12935;50.782;6.074;2023-04-05T12:33:25;33.40;;;12.93;;
24857;SDS011;12935;50.782;6.074;2023-04-05T12:35:57;26.80;;;11.90;;
24857;SDS011;12935;50.782;6.074;2023-04-05T12:38:26;28.10;;;12.30;;
24857;SDS011;12935;50.782;6.074;2023-04-05T12:40:51;27.77;;;11.10;;
24857;SDS011;12935;50.782;6.074;2023-04-05T12:43:18;22.17;;;11.33;;
24857;SDS011;12935;50.782;6.074;2023-04-05T12:45:44;15.43;;;9.60;;
24857;SDS011;12935;50.782;6.074;2023-04-05T12:48:11;30.60;;;11.87;;
24857;SDS011;12935;50.782;6.074;2023-04-05T12:50:47;31.70;;;12.03;;
24857;SDS011;12935;50.782;6.074;2023-04-05T12:53:19;27.60;;;10.70;;
24857;SDS011;12935;50.782;6.074;2023-04-05T12:55:55;22.73;;;11.07;;
24857;SDS011;12935;50.782;6.074;2023-04-05T12:58:32;24.63;;;12.70;;
24857;SDS011;12935;50.782;6.074;2023-04-05T13:00:59;39.73;;;13.97;;
24857;SDS011;12935;50.782;6.074;2023-04-05T13:03:25;28.23;;;13.27;;
24857;SDS011;12935;50.782;6.074;2023-04-05T13:05:51;24.33;;;12.93;;
24857;SDS011;12935;50.782;6.074;2023-04-05T13:08:16;26.07;;;13.83;;
24857;SDS011;12935;50.782;6.074;2023-04-05T13:10:45;29.80;;;14.67;;
24857;SDS011;12935;50.782;6.074;2023-04-05T13:13:12;37.30;;;16.77;;
24857;SDS011;12935;50.782;6.074;2023-04-05T13:15:38;36.50;;;17.93;;
24857;SDS011;12935;50.782;6.074;2023-04-05T13:18:03;21.40;;;15.60;;
24857;SDS011;12935;50.782;6.074;2023-04-05T13:20:29;26.53;;;17.90;;
24857;SDS011;12935;50.782;6.074;2023-04-05T13:22:55;22.03;;;15.93;;
24857;SDS011;12935;50.782;6.074;2023-04-05T13:25:20;35.27;;;18.90;;
24857;SDS011;12935;50.782;6.074;2023-04-05T13:27:46;39.07;;;19.53;;
24857;SDS011;12935;50.782;6.074;2023-04-05T13:30:11;32.17;;;19.30;;
24857;SDS011;12935;50.782;6.074;2023-04-05T13:32:37;31.70;;;19.47;;
24857;SDS011;12935;50.782;6.074;2023-04-05T13:35:02;48.07;;;21.20;;
24857;SDS011;12935;50.782;6.074;2023-04-05T13:37:28;27.90;;;18.47;;
24857;SDS011;12935;50.782;6.074;2023-04-05T13:39:53;23.47;;;18.17;;
24857;SDS011;12935;50.782;6.074;2023-04-05T13:42:18;25.20;;;20.20;;
24857;SDS011;12935;50.782;6.074;2023-04-05T13:44:44;25.03;;;20.03;;
24857;SDS011;12935;50.782;6.074;2023-04-05T13:47:09;31.17;;;19.73;;
24857;SDS011;12935;50.782;6.074;2023-04-05T13:49:34;37.87;;;20.50;;
24857;SDS011;12935;50.782;6.074;2023-04-05T13:52:00;26.13;;;16.60;;
24857;SDS011;12935;50.782;6.074;2023-04-05T13:54:25;22.03;;;18.07;;
24857;SDS011;12935;50.782;6.074;2023-04-05T13:56:51;31.27;;;18.70;;
24857;SDS011;12935;50.782;6.074;2023-04-05T13:59:16;34.47;;;19.27;;
24857;SDS011;12935;50.782;6.074;2023-04-05T14:01:43;20.37;;;17.93;;
24857;SDS011;12935;50.782;6.074;2023-04-05T14:04:09;24.67;;;17.97;;
24857;SDS011;12935;50.782;6.074;2023-04-05T14:06:34;24.67;;;21.40;;
24857;SDS011;12935;50.782;6.074;2023-04-05T14:09:00;32.23;;;19.70;;
24857;SDS011;12935;50.782;6.074;2023-04-05T14:11:25;34.30;;;21.73;;
24857;SDS011;12935;50.782;6.074;2023-04-05T14:13:50;28.80;;;21.23;;
24857;SDS011;12935;50.782;6.074;2023-04-05T14:16:16;24.53;;;20.80;;
24857;SDS011;12935;50.782;6.074;2023-04-05T14:18:41;39.73;;;20.63;;
24857;SDS011;12935;50.782;6.074;2023-04-05T14:21:06;35.77;;;19.17;;
24857;SDS011;12935;50.782;6.074;2023-04-05T14:23:32;28.93;;;19.10;;
24857;SDS011;12935;50.782;6.074;2023-04-05T14:25:57;28.00;;;22.20;;
24857;SDS011;12935;50.782;6.074;2023-04-05T14:28:22;40.80;;;20.90;;
24857;SDS011;12935;50.782;6.074;2023-04-05T14:30:48;31.27;;;21.07;;
24857;SDS011;12935;50.782;6.074;2023-04-05T14:33:13;25.63;;;18.93;;
24857;SDS011;12935;50.782;6.074;2023-04-05T14:35:40;32.73;;;20.30;;
24857;SDS011;12935;50.782;6.074;2023-04-05T14:38:06;33.20;;;19.90;;
24857;SDS011;12935;50.782;6.074;2023-04-05T14:40:31;29.53;;;20.53;;
24857;SDS011;12935;50.782;6.074;2023-04-05T14:42:56;30.13;;;19.93;;
24857;SDS011;12935;50.782;6.074;2023-04-05T14:45:22;46.90;;;23.30;;
24857;SDS011;12935;50.782;6.074;2023-04-05T14:47:51;23.30;;;19.23;;
24857;SDS011;12935;50.782;6.074;2023-04-05T14:50:16;31.07;;;19.47;;
24857;SDS011;12935;50.782;6.074;2023-04-05T14:52:41;25.20;;;18.40;;
24857;SDS011;12935;50.782;6.074;2023-04-05T14:55:07;24.90;;;17.43;;
24857;SDS011;12935;50.782;6.074;2023-04-05T14:57:32;30.60;;;16.80;;
24857;SDS011;12935;50.782;6.074;2023-04-05T14:59:58;32.90;;;15.07;;
24857;SDS011;12935;50.782;6.074;2023-04-05T15:02:23;21.70;;;13.63;;
24857;SDS011;12935;50.782;6.074;2023-04-05T15:04:49;34.20;;;15.20;;
24857;SDS011;12935;50.782;6.074;2023-04-05T15:07:14;22.83;;;12.27;;
24857;SDS011;12935;50.782;6.074;2023-04-05T15:09:40;25.10;;;12.50;;